Time;durP1;ratioP1;P1;durP2;ratioP2;P2;SDS_P1;SDS_P2;PMS_P1;PMS_P2;Temp;Humidity;BMP_temperature;BMP_pressure;BME280_temperature;BME280_humidity;BME280_pressure;Samples;Min_cycle;Max_cycle;Signal;HPM_P1;HPM_P2
2022/02/04 00:06:53;;;;;;;67.97;8.50;;;;;;;-155.54;100.00;57697.75;4965736;28;20492;-61
2022/02/04 00:22:53;;;;;;;10.50;7.13;;;;;;;-155.54;100.00;57697.75;4965250;28;20579;-61
2022/02/04 00:25:34;;;;;;;11.38;7.20;;;;;;;-155.54;100.00;57697.75;4966003;28;20319;-61
2022/02/04 00:28:06;;;;;;;11.80;7.50;;;;;;;-155.54;100.00;57697.75;4965641;28;20433;-62
2022/02/04 00:30:37;;;;;;;8.65;5.50;;;;;;;-155.54;100.00;57697.75;4965288;28;20166;-61
2022/02/04 00:33:05;;;;;;;7.70;5.60;;;;;;;-155.54;100.00;57697.75;4965745;28;20143;-62
2022/02/04 00:38:21;;;;;;;9.20;6.85;;;;;;;-155.54;100.00;57697.75;4964503;28;20091;-61
2022/02/04 00:40:54;;;;;;;9.13;6.82;;;;;;;-155.54;100.00;57697.75;4965055;28;20839;-62
2022/02/04 00:43:21;;;;;;;10.30;6.18;;;;;;;-155.54;100.00;57697.75;4963190;28;20599;-61
2022/02/04 00:46:05;;;;;;;8.13;6.45;;;;;;;-155.54;100.00;57697.75;4951784;28;20655;-61
2022/02/04 00:48:40;;;;;;;7.18;5.53;;;;;;;-155.54;100.00;57697.75;4956569;28;20095;-61
2022/02/04 00:53:41;;;;;;;8.73;5.97;;;;;;;-155.54;100.00;57697.75;4964867;28;20112;-61
2022/02/04 01:28:26;;;;;;;7.10;4.90;;;;;;;-155.54;100.00;57697.75;4969417;28;20671;-61
2022/02/04 01:30:53;;;;;;;6.65;4.72;;;;;;;-155.54;100.00;57697.75;4958470;28;20484;-61
2022/02/04 01:33:19;;;;;;;7.95;5.32;;;;;;;-155.54;100.00;57697.75;4957840;28;20095;-61
2022/02/04 01:35:44;;;;;;;7.40;5.20;;;;;;;-155.54;100.00;57697.75;4963411;28;20107;-61
2022/02/04 01:38:09;;;;;;;8.27;5.95;;;;;;;-155.54;100.00;57697.75;4964769;28;20090;-61
2022/02/04 01:40:35;;;;;;;7.53;5.47;;;;;;;-155.54;100.00;57697.75;4949062;28;20609;-61
2022/02/04 01:43:00;;;;;;;7.63;5.03;;;;;;;-155.54;100.00;57697.75;4959102;28;20091;-61
2022/02/04 01:45:26;;;;;;;6.47;4.60;;;;;;;-155.54;100.00;57697.75;4953209;28;20091;-61
2022/02/04 01:47:57;;;;;;;7.15;4.47;;;;;;;-155.54;100.00;57697.75;4950071;28;20186;-61
2022/02/04 01:50:23;;;;;;;5.82;4.07;;;;;;;-155.54;100.00;57697.75;4957923;28;20083;-61
2022/02/04 01:52:49;;;;;;;7.25;4.85;;;;;;;-155.54;100.00;57697.75;4960276;28;20125;-61
2022/02/04 01:55:14;;;;;;;6.68;4.78;;;;;;;-155.54;100.00;57697.75;4961522;28;20119;-61
2022/02/04 01:57:40;;;;;;;8.70;6.07;;;;;;;-155.54;100.00;57697.75;4963675;28;20389;-61
2022/02/04 02:00:06;;;;;;;11.10;7.35;;;;;;;-155.54;100.00;57697.75;4953817;28;20122;-62
2022/02/04 02:02:31;;;;;;;7.78;5.78;;;;;;;-155.54;100.00;57697.75;4951287;28;20179;-61
2022/02/04 02:04:56;;;;;;;8.32;4.97;;;;;;;-155.54;100.00;57697.75;4960923;28;20083;-61
2022/02/04 02:07:25;;;;;;;10.57;4.65;;;;;;;-155.54;100.00;57697.75;4963215;28;20106;-61
2022/02/04 02:09:58;;;;;;;6.15;4.45;;;;;;;-155.54;100.00;57697.75;4954591;28;20080;-61
2022/02/04 02:12:27;;;;;;;7.47;5.20;;;;;;;-155.54;100.00;57697.75;4953587;28;20562;-61
2022/02/04 02:15:22;;;;;;;8.65;6.43;;;;;;;-155.54;100.00;57697.75;4965708;28;20107;-61
2022/02/04 02:52:47;;;;;;;9.15;6.78;;;;;;;-155.54;100.00;57697.75;4951594;28;20106;-61
2022/02/04 02:58:04;;;;;;;9.07;6.00;;;;;;;-155.54;100.00;57697.75;4958729;28;20383;-61
2022/02/04 03:03:16;;;;;;;8.73;6.00;;;;;;;-155.54;100.00;57697.75;4963313;28;20115;-61
2022/02/04 03:05:41;;;;;;;7.35;5.15;;;;;;;-155.54;100.00;57697.75;4962367;28;20248;-61
2022/02/04 03:08:07;;;;;;;8.98;6.30;;;;;;;-155.54;100.00;57697.75;4959144;28;20323;-61
2022/02/04 03:10:32;;;;;;;7.15;5.38;;;;;;;-155.54;100.00;57697.75;4954150;28;20076;-61
2022/02/04 03:12:58;;;;;;;10.23;6.88;;;;;;;-155.54;100.00;57697.75;4961905;28;20569;-61
2022/02/04 03:15:23;;;;;;;11.25;6.72;;;;;;;-155.54;100.00;57697.75;4953795;28;20292;-61
2022/02/04 03:17:58;;;;;;;9.43;6.78;;;;;;;-155.54;100.00;57697.75;4958770;28;20079;-61
2022/02/04 03:20:23;;;;;;;10.93;6.90;;;;;;;-155.54;100.00;57697.75;4958457;28;20114;-61
2022/02/04 03:22:50;;;;;;;11.52;7.70;;;;;;;-155.54;100.00;57697.75;4958463;28;20165;-61
2022/02/04 03:25:17;;;;;;;11.10;7.20;;;;;;;-155.54;100.00;57697.75;4963375;28;20110;-61
2022/02/04 03:27:50;;;;;;;12.02;8.13;;;;;;;-155.54;100.00;57697.75;4965031;28;20305;-61
2022/02/04 03:30:20;;;;;;;14.52;8.52;;;;;;;-155.54;100.00;57697.75;4962169;28;20088;-61
2022/02/04 03:32:53;;;;;;;16.05;7.85;;;;;;;-155.54;100.00;57697.75;4960364;28;20614;-61
2022/02/04 03:35:21;;;;;;;11.02;7.20;;;;;;;-155.54;100.00;57697.75;4959913;28;20122;-61
2022/02/04 03:37:47;;;;;;;11.63;6.68;;;;;;;-155.54;100.00;57697.75;4965343;28;20083;-61
2022/02/04 03:40:13;;;;;;;12.77;7.97;;;;;;;-155.54;100.00;57697.75;4956427;28;20103;-61
2022/02/04 03:42:38;;;;;;;47.33;9.32;;;;;;;-155.54;100.00;57697.75;4965467;28;20520;-61
2022/02/04 03:45:04;;;;;;;11.02;5.82;;;;;;;-155.54;100.00;57697.75;4964865;28;20075;-61
2022/02/04 03:47:29;;;;;;;45.15;8.55;;;;;;;-155.54;100.00;57697.75;4957391;28;20115;-61
2022/02/04 03:49:55;;;;;;;11.98;7.20;;;;;;;-155.54;100.00;57697.75;4963964;28;20435;-61
2022/02/04 03:52:20;;;;;;;11.70;7.00;;;;;;;-155.54;100.00;57697.75;4961274;28;20107;-61
2022/02/04 03:54:46;;;;;;;10.45;8.13;;;;;;;-155.54;100.00;57697.75;4952304;28;20129;-61
2022/02/04 03:57:11;;;;;;;10.63;6.63;;;;;;;-155.54;100.00;57697.75;4953560;28;20079;-61
2022/02/04 03:59:36;;;;;;;8.40;5.90;;;;;;;-155.54;100.00;57697.75;4965706;28;20110;-61
2022/02/04 04:02:02;;;;;;;8.27;5.88;;;;;;;-155.54;100.00;57697.75;4949682;28;20083;-61
2022/02/04 04:04:32;;;;;;;17.42;8.45;;;;;;;-155.54;100.00;57697.75;4973939;28;20102;-61
2022/02/04 04:06:58;;;;;;;10.20;6.68;;;;;;;-155.54;100.00;57697.75;4949858;28;20513;-61
2022/02/04 04:09:24;;;;;;;20.10;8.65;;;;;;;-155.54;100.00;57697.75;4965103;28;20174;-61
2022/02/04 04:11:49;;;;;;;11.85;7.93;;;;;;;-155.54;100.00;57697.75;4963383;28;20107;-61
2022/02/04 04:14:17;;;;;;;11.50;7.50;;;;;;;-155.54;100.00;57697.75;4965903;28;20087;-61
2022/02/04 04:16:42;;;;;;;13.80;9.38;;;;;;;-155.54;100.00;57697.75;4963046;28;20099;-61
2022/02/04 04:19:08;;;;;;;11.82;7.97;;;;;;;-155.54;100.00;57697.75;4959943;28;20104;-61
2022/02/04 04:21:33;;;;;;;10.98;7.25;;;;;;;-155.54;100.00;57697.75;4946927;28;20092;-61
2022/02/04 04:24:00;;;;;;;10.32;7.22;;;;;;;-155.54;100.00;57697.75;4962566;28;20537;-59
2022/02/04 04:26:25;;;;;;;9.45;5.35;;;;;;;-155.54;100.00;57697.75;4949984;28;20080;-58
2022/02/04 04:28:50;;;;;;;8.75;5.95;;;;;;;-155.54;100.00;57697.75;4966062;28;20129;-58
2022/02/04 04:31:18;;;;;;;11.45;8.00;;;;;;;-155.54;100.00;57697.75;4963073;28;20107;-58
2022/02/04 04:33:43;;;;;;;12.43;7.15;;;;;;;-155.54;100.00;57697.75;4961065;28;20099;-59
2022/02/04 04:36:09;;;;;;;10.05;5.85;;;;;;;-155.54;100.00;57697.75;4961090;28;20114;-58
2022/02/04 04:38:44;;;;;;;9.93;6.88;;;;;;;-155.54;100.00;57697.75;4963964;28;20079;-58
2022/02/04 04:41:45;;;;;;;8.55;6.15;;;;;;;-155.54;100.00;57697.75;4963526;28;20127;-58
2022/02/04 05:30:07;;;;;;;9.48;5.50;;;;;;;-155.54;100.00;57697.75;4958109;28;20593;-59
2022/02/04 05:32:33;;;;;;;9.65;6.38;;;;;;;-155.54;100.00;57697.75;4955220;28;20141;-59
2022/02/04 05:35:00;;;;;;;9.90;6.55;;;;;;;-155.54;100.00;57697.75;4963610;28;20227;-58
2022/02/04 05:37:25;;;;;;;5.55;4.20;;;;;;;-155.54;100.00;57697.75;4947280;28;20084;-59
2022/02/04 05:39:57;;;;;;;8.02;5.45;;;;;;;-155.54;100.00;57697.75;4962222;28;20104;-59
2022/02/04 05:42:30;;;;;;;8.40;6.15;;;;;;;-155.54;100.00;57697.75;4955755;28;20141;-58
2022/02/04 05:45:19;;;;;;;7.90;5.85;;;;;;;-155.54;100.00;57697.75;4949525;28;20434;-59
2022/02/04 05:47:41;;;;;;;10.18;6.90;;;;;;;-155.54;100.00;57697.75;4950901;28;20103;-59
2022/02/04 05:52:47;;;;;;;8.20;5.95;;;;;;;-155.54;100.00;57697.75;4961635;28;20488;-59
2022/02/04 05:55:33;;;;;;;8.13;5.18;;;;;;;-155.54;100.00;57697.75;4960351;28;20114;-59
2022/02/04 06:00:34;;;;;;;8.73;6.25;;;;;;;-155.54;100.00;57697.75;4952477;28;20103;-60
2022/02/04 06:24:08;;;;;;;7.63;5.18;;;;;;;;;;5034450;28;20498;-58
2022/02/04 06:26:33;;;;;;;6.70;4.27;;;;;;;;;;5013757;28;20384;-59
2022/02/04 06:28:59;;;;;;;7.20;4.47;;;;;;;;;;4996920;28;20071;-59
2022/02/04 06:31:24;;;;;;;5.37;4.33;;;;;;;;;;5007593;28;20101;-59
2022/02/04 06:33:49;;;;;;;5.33;3.83;;;;;;;;;;5035013;28;20074;-60
2022/02/04 06:36:14;;;;;;;6.80;5.03;;;;;;;;;;5018326;28;20425;-59
2022/02/04 06:38:39;;;;;;;6.43;4.47;;;;;;;;;;5024537;28;20568;-59
2022/02/04 06:41:05;;;;;;;5.60;4.03;;;;;;;;;;5023406;28;20102;-58
2022/02/04 06:43:30;;;;;;;7.30;5.23;;;;;;;;;;5025579;28;20101;-58
2022/02/04 06:45:55;;;;;;;8.95;4.68;;;;;;;;;;5021118;28;20084;-58
2022/02/04 06:48:21;;;;;;;6.53;4.47;;;;;;;;;;5015804;28;20097;-59
2022/02/04 06:50:46;;;;;;;10.80;6.00;;;;;;;;;;5020605;28;20423;-59
2022/02/04 06:53:11;;;;;;;7.70;5.40;;;;;;;;;;5030502;28;20081;-61
2022/02/04 06:55:36;;;;;;;8.90;5.10;;;;;;;;;;5008483;28;20200;-61
2022/02/04 06:58:02;;;;;;;8.97;5.43;;;;;;;;;;5015482;28;20359;-61
2022/02/04 07:00:28;;;;;;;13.43;9.90;;;;;;;;;;5028294;28;20357;-61
2022/02/04 07:02:54;;;;;;;7.53;5.78;;;;;;;;;;5029612;28;20201;-61
2022/02/04 07:05:20;;;;;;;17.50;12.95;;;;;;;;;;5017087;28;20160;-60
2022/02/04 07:07:52;;;;;;;30.45;21.52;;;;;;;;;;5022419;28;20156;-59
2022/02/04 07:10:30;;;;;;;9.05;6.40;;;;;;;;;;5048535;28;20078;-59
2022/02/04 07:13:10;;;;;;;8.77;5.82;;;;;;;;;;5002428;28;20677;-59
2022/02/04 07:15:52;;;;;;;6.63;4.72;;;;;;;;;;5006864;28;20451;-59
2022/02/04 07:21:02;;;;;;;7.35;4.95;;;;;;;;;;5000487;28;20479;-59
2022/02/04 07:23:28;;;;;;;6.35;4.80;;;;;;;;;;5008237;28;20086;-59
2022/02/04 07:25:53;;;;;;;9.17;6.53;;;;;;;;;;5009595;28;20082;-59
2022/02/04 07:28:18;;;;;;;8.10;5.97;;;;;;;;;;5009698;28;20746;-59
2022/02/04 07:30:44;;;;;;;8.90;6.03;;;;;;;;;;5007062;28;20137;-59
2022/02/04 07:40:54;;;;;;;9.35;5.97;;;;;;;;;;4992631;28;20108;-60
2022/02/04 07:43:20;;;;;;;8.65;6.10;;;;;;;;;;4999259;28;20587;-60
2022/02/04 07:45:45;;;;;;;11.23;7.10;;;;;;;;;;4995105;28;20140;-60
2022/02/04 07:48:11;;;;;;;8.27;5.30;;;;;;;;;;4998148;28;20228;-60
2022/02/04 07:50:36;;;;;;;7.97;5.55;;;;;;;;;;4997493;28;20185;-59
2022/02/04 07:53:01;;;;;;;8.53;5.90;;;;;;;;;;5007192;28;20395;-60
2022/02/04 07:55:27;;;;;;;15.10;7.80;;;;;;;;;;4993819;28;20695;-59
2022/02/04 07:57:52;;;;;;;8.50;5.90;;;;;;;;;;4988831;28;20456;-60
2022/02/04 08:00:18;;;;;;;9.83;6.80;;;;;;;;;;4990866;28;20364;-60
2022/02/04 08:02:44;;;;;;;7.00;5.20;;;;;;;;;;5008561;28;20117;-60
2022/02/04 08:05:12;;;;;;;8.32;6.63;;;;;;;;;;4989344;28;20488;-60
2022/02/04 08:07:46;;;;;;;9.13;7.30;;;;;;;;;;4987801;28;20645;-60
2022/02/04 08:10:25;;;;;;;7.82;5.60;;;;;;;;;;4979045;28;20152;-60
2022/02/04 08:47:35;;;;;;;8.50;5.28;;;;;;;;;;4992916;28;20140;-60
2022/02/04 08:52:57;;;;;;;11.23;7.18;;;;;;;;;;5002939;28;21320;-60
2022/02/04 08:55:40;;;;;;;9.98;6.15;;;;;;;;;;4997340;28;20191;-60
2022/02/04 09:00:41;;;;;;;6.97;4.77;;;;;;;;;;4987009;28;20213;-61
2022/02/04 09:03:26;;;;;;;8.05;4.82;;;;;;;;;;4999161;28;20098;-60
2022/02/04 09:06:04;;;;;;;6.80;4.70;;;;;;;;;;4989235;28;20093;-59
2022/02/04 09:08:31;;;;;;;8.88;6.22;;;;;;;;;;4994672;28;20132;-58
2022/02/04 09:11:02;;;;;;;7.60;5.53;;;;;;;;;;5002715;28;20105;-58
2022/02/04 09:19:03;;;;;;;8.90;5.97;;;;;;;;;;4998939;28;20136;-59
2022/02/04 09:24:04;;;;;;;7.78;5.38;;;;;;;;;;5000716;28;20093;-59
2022/02/04 09:26:30;;;;;;;7.82;5.18;;;;;;;;;;4999082;28;20733;-58
2022/02/04 09:28:55;;;;;;;7.97;5.30;;;;;;;;;;4995837;28;20353;-59
2022/02/04 09:31:20;;;;;;;7.23;5.00;;;;;;;;;;4993145;28;20102;-59
2022/02/04 09:33:45;;;;;;;8.17;5.63;;;;;;;;;;5001750;28;20079;-59
2022/02/04 09:36:11;;;;;;;18.63;11.53;;;;;;;;;;4996588;28;20151;-59
2022/02/04 09:38:36;;;;;;;9.17;5.60;;;;;;;;;;5004416;28;20778;-59
2022/02/04 09:41:01;;;;;;;6.83;4.83;;;;;;;;;;5000100;28;20337;-58
2022/02/04 09:43:28;;;;;;;6.33;4.87;;;;;;;;;;5004377;28;20121;-62
2022/02/04 09:45:54;;;;;;;8.25;5.63;;;;;;;;;;5007347;28;20164;-61
2022/02/04 09:48:19;;;;;;;5.93;3.80;;;;;;;;;;5009432;28;20194;-62
2022/02/04 09:50:48;;;;;;;5.50;3.90;;;;;;;;;;5003003;28;20493;-61
2022/02/04 10:08:21;;;;;;;6.07;4.40;;;;;;;;;;4976391;28;20102;-63
2022/02/04 10:12:00;;;;;;;7.90;4.72;;;;;;;;;;5004529;28;20580;-63
2022/02/04 10:14:06;;;;;;;7.63;4.28;;;;;;;;;;4995374;28;20122;-64
2022/02/04 10:19:22;;;;;;;6.00;4.28;;;;;;;;;;4992222;28;20190;-62
2022/02/04 10:22:13;;;;;;;6.45;4.22;;;;;;;;;;4994034;28;20090;-59
2022/02/04 10:24:39;;;;;;;5.45;3.58;;;;;;;;;;5005823;28;20376;-61
2022/02/04 10:27:13;;;;;;;6.80;4.00;;;;;;;;;;5006195;28;20487;-61
2022/02/04 10:29:38;;;;;;;6.22;3.63;;;;;;;;;;4997830;28;20101;-60
2022/02/04 10:32:04;;;;;;;4.43;3.40;;;;;;;;;;5007179;28;20118;-60
2022/02/04 10:34:29;;;;;;;5.47;3.90;;;;;;;;;;5005186;28;20078;-60
2022/02/04 10:37:01;;;;;;;7.25;3.92;;;;;;;;;;5001501;28;20430;-60
2022/02/04 10:47:58;;;;;;;4.30;3.05;;;;;;;;;;5000198;28;20131;-60
2022/02/04 10:50:51;;;;;;;4.88;3.75;;;;;;;;;;4999011;28;20132;-60
2022/02/04 11:03:51;;;;;;;3.92;3.08;;;;;;;;;;4955683;28;20110;-73
2022/02/04 11:36:38;;;;;;;5.53;3.55;;;;;;;;;;5010051;28;20098;-73
2022/02/04 11:53:26;;;;;;;4.13;2.80;;;;;;;;;;5012011;28;20140;-73
2022/02/04 11:55:58;;;;;;;3.47;2.65;;;;;;;;;;5023703;28;20112;-74
2022/02/04 11:58:23;;;;;;;3.80;2.60;;;;;;;;;;5023825;28;20070;-74
2022/02/04 12:00:48;;;;;;;5.10;2.57;;;;;;;;;;5022454;28;20460;-73
2022/02/04 12:03:24;;;;;;;4.17;2.90;;;;;;;;;;5009124;28;20171;-73
2022/02/04 12:05:50;;;;;;;5.13;3.47;;;;;;;;;;4999422;28;20709;-73
2022/02/04 12:08:15;;;;;;;5.20;3.78;;;;;;;;;;5015683;28;20217;-73
2022/02/04 12:10:50;;;;;;;4.23;2.87;;;;;;;;;;5023265;28;20127;-73
2022/02/04 12:13:17;;;;;;;4.35;3.30;;;;;;;;;;5023313;28;20089;-73
2022/02/04 12:15:49;;;;;;;3.90;3.00;;;;;;;;;;5022190;28;20102;-73
2022/02/04 12:18:17;;;;;;;3.83;2.80;;;;;;;;;;5015978;28;20381;-74
2022/02/04 12:20:55;;;;;;;3.05;2.58;;;;;;;;;;5017066;28;20121;-74
2022/02/04 12:23:26;;;;;;;3.63;2.25;;;;;;;;;;5023357;28;20532;-73
2022/02/04 12:26:13;;;;;;;2.47;2.28;;;;;;;;;;5016694;28;20128;-73
2022/02/04 12:29:08;;;;;;;2.20;2.00;;;;;;;;;;5022104;28;20093;-74
2022/02/04 12:31:42;;;;;;;2.58;1.70;;;;;;;;;;5023093;28;20098;-73
2022/02/04 12:34:10;;;;;;;2.38;1.77;;;;;;;;;;5018231;28;20452;-73
2022/02/04 12:36:39;;;;;;;2.42;2.22;;;;;;;;;;5014802;28;20117;-73
2022/02/04 12:39:11;;;;;;;2.95;2.35;;;;;;;;;;5015266;28;20129;-73
2022/02/04 12:41:56;;;;;;;2.53;2.20;;;;;;;;;;5021601;28;20108;-73
2022/02/04 12:44:42;;;;;;;2.63;2.00;;;;;;;;;;5003667;28;20097;-73
2022/02/04 12:47:12;;;;;;;2.03;1.80;;;;;;;;;;5012603;28;20621;-73
2022/02/04 12:49:49;;;;;;;1.85;1.75;;;;;;;;;;5022378;28;20160;-73
2022/02/04 12:52:21;;;;;;;1.70;1.60;;;;;;;;;;5005727;28;20092;-72
2022/02/04 12:54:50;;;;;;;2.25;2.05;;;;;;;;;;5022665;28;20197;-69
2022/02/04 13:08:07;;;;;;;1.73;1.63;;;;;;;;;;5007075;28;20623;-69
2022/02/04 13:10:32;;;;;;;1.95;1.85;;;;;;;;;;5021985;28;20089;-70
2022/02/04 13:12:59;;;;;;;1.55;1.35;;;;;;;;;;5011446;28;20152;-69
2022/02/04 13:15:24;;;;;;;1.58;1.30;;;;;;;;;;5012710;28;20113;-68
2022/02/04 13:17:49;;;;;;;1.60;1.48;;;;;;;;;;5014129;28;20082;-68
2022/02/04 13:20:21;;;;;;;1.27;1.20;;;;;;;;;;5021530;28;20176;-69
2022/02/04 13:22:47;;;;;;;1.40;1.30;;;;;;;;;;5020430;28;20070;-69
2022/02/04 13:25:16;;;;;;;2.15;1.10;;;;;;;;;;5022126;28;20082;-70
2022/02/04 13:28:01;;;;;;;1.80;1.70;;;;;;;;;;5018803;28;20189;-70
2022/02/04 13:30:26;;;;;;;1.35;1.30;;;;;;;;;;5013719;28;20127;-71
2022/02/04 13:32:52;;;;;;;2.25;1.45;;;;;;;;;;5022280;28;20114;-70
2022/02/04 13:35:24;;;;;;;1.23;0.93;;;;;;;;;;5011607;28;20152;-70
2022/02/04 13:37:51;;;;;;;1.95;1.30;;;;;;;;;;5004074;28;20349;-70
2022/02/04 13:40:24;;;;;;;1.27;1.27;;;;;;;;;;5019013;28;20118;-70
2022/02/04 13:42:53;;;;;;;1.20;1.10;;;;;;;;;;5017626;28;20140;-69
2022/02/04 13:45:28;;;;;;;1.33;1.23;;;;;;;;;;5022608;28;20169;-71
2022/02/04 13:48:15;;;;;;;1.10;1.02;;;;;;;;;;5020982;28;20212;-70
2022/02/04 13:51:02;;;;;;;1.45;1.10;;;;;;;;;;5002132;28;20546;-70
2022/02/04 13:53:39;;;;;;;1.17;1.10;;;;;;;;;;5005282;28;20081;-70
2022/02/04 13:56:29;;;;;;;2.83;1.40;;;;;;;;;;5021852;28;20606;-70
2022/02/04 13:59:13;;;;;;;1.30;1.20;;;;;;;;;;5021454;28;20732;-70
2022/02/04 14:01:45;;;;;;;2.03;1.35;;;;;;;;;;5020762;28;20162;-70
2022/02/04 14:04:10;;;;;;;0.90;0.90;;;;;;;;;;4997476;28;20117;-70
2022/02/04 14:06:37;;;;;;;1.17;1.17;;;;;;;;;;5021450;28;20097;-70
2022/02/04 14:09:12;;;;;;;1.48;1.38;;;;;;;;;;5016875;28;20478;-70
2022/02/04 14:11:38;;;;;;;1.23;1.13;;;;;;;;;;5021402;28;20100;-70
2022/02/04 14:14:04;;;;;;;1.48;1.38;;;;;;;;;;5021452;28;20078;-70
2022/02/04 14:16:29;;;;;;;1.50;1.40;;;;;;;;;;5019870;28;20098;-70
2022/02/04 14:18:55;;;;;;;1.60;1.27;;;;;;;;;;5010742;28;20098;-70
2022/02/04 14:21:20;;;;;;;1.13;1.03;;;;;;;;;;5018445;28;20159;-70
2022/02/04 14:23:48;;;;;;;1.42;1.33;;;;;;;;;;5021578;28;20098;-70
2022/02/04 14:26:22;;;;;;;2.28;1.45;;;;;;;;;;5020179;28;20073;-70
2022/02/04 14:28:58;;;;;;;2.17;1.90;;;;;;;;;;5021321;28;20705;-70
2022/02/04 14:31:34;;;;;;;6.75;3.05;;;;;;;;;;5021127;28;20090;-71
2022/02/04 15:01:25;;;;;;;2.00;1.90;;;;;;;;;;4963084;28;20417;-71
2022/02/04 15:06:26;;;;;;;1.63;1.52;;;;;;;;;;5013933;28;20498;-71
2022/02/04 15:08:54;;;;;;;2.30;1.42;;;;;;;;;;5016167;28;20109;-72
2022/02/04 15:11:20;;;;;;;2.22;1.75;;;;;;;;;;5024533;28;20105;-71
2022/02/04 15:13:46;;;;;;;1.50;1.40;;;;;;;;;;5007486;28;20582;-71
2022/02/04 15:16:12;;;;;;;1.27;1.20;;;;;;;;;;5019029;28;20102;-71
2022/02/04 15:18:37;;;;;;;1.45;1.40;;;;;;;;;;5024652;28;20281;-71
2022/02/04 15:21:04;;;;;;;2.00;1.30;;;;;;;;;;5024239;28;20125;-71
2022/02/04 15:23:30;;;;;;;2.33;1.35;;;;;;;;;;5024293;28;20098;-72
2022/02/04 15:25:56;;;;;;;1.13;1.00;;;;;;;;;;5024705;28;20127;-71
2022/02/04 15:28:58;;;;;;;1.23;1.15;;;;;;;;;;5015052;28;20091;-71
2022/02/04 15:31:27;;;;;;;1.38;0.88;;;;;;;;;;5023577;28;20094;-71
2022/02/04 15:33:53;;;;;;;0.73;0.73;;;;;;;;;;5024726;28;20626;-71
2022/02/04 15:36:25;;;;;;;1.38;1.17;;;;;;;;;;5020596;28;20126;-71
2022/02/04 15:38:51;;;;;;;1.17;1.00;;;;;;;;;;5015727;28;20124;-72
2022/02/04 15:41:16;;;;;;;2.13;1.50;;;;;;;;;;5017547;28;20090;-71
2022/02/04 15:43:42;;;;;;;0.97;0.87;;;;;;;;;;5020937;28;20462;-71
2022/02/04 16:02:05;;;;;;;1.25;0.82;;;;;;;;;;5023943;28;20082;-71
2022/02/04 16:04:32;;;;;;;1.50;0.68;;;;;;;;;;5023815;28;20240;-72
2022/02/04 16:06:58;;;;;;;0.80;0.80;;;;;;;;;;5023704;28;20181;-72
2022/02/04 16:09:24;;;;;;;1.30;0.88;;;;;;;;;;5009836;28;20639;-71
2022/02/04 16:12:02;;;;;;;1.00;0.75;;;;;;;;;;5023342;28;20494;-71
2022/02/04 16:14:33;;;;;;;0.73;0.65;;;;;;;;;;5024006;28;20078;-72
2022/02/04 16:17:08;;;;;;;4.40;1.20;;;;;;;;;;4993468;28;20870;-72
2022/02/04 16:19:43;;;;;;;4.07;1.17;;;;;;;;;;4996824;28;20214;-72
2022/02/04 16:22:17;;;;;;;1.63;1.08;;;;;;;;;;5000989;28;20128;-72
2022/02/04 16:25:11;;;;;;;2.45;1.50;;;;;;;;;;4996684;28;20098;-72
2022/02/04 16:30:02;;;;;;;6.27;1.50;;;;;;;;;;4975437;28;20540;-72
2022/02/04 16:32:28;;;;;;;3.75;1.25;;;;;;;;;;4987587;28;20470;-71
2022/02/04 16:34:55;;;;;;;2.63;1.55;;;;;;;;;;4999778;28;20099;-71
2022/02/04 16:37:29;;;;;;;1.98;1.40;;;;;;;;;;5001313;28;20105;-71
2022/02/04 16:39:55;;;;;;;5.93;1.65;;;;;;;;;;5003184;28;20537;-72
2022/02/04 16:42:21;;;;;;;1.95;1.10;;;;;;;;;;4990068;28;20074;-72
2022/02/04 16:44:46;;;;;;;2.88;1.40;;;;;;;;;;4994051;28;20410;-71
2022/02/04 16:47:11;;;;;;;5.23;1.60;;;;;;;;;;4996834;28;20189;-71
2022/02/04 16:49:39;;;;;;;3.13;1.13;;;;;;;;;;4991905;28;20098;-72
2022/02/04 16:52:05;;;;;;;1.23;1.10;;;;;;;;;;5002585;28;20174;-71
2022/02/04 16:54:31;;;;;;;2.95;1.25;;;;;;;;;;5000473;28;20157;-72
2022/02/04 16:56:56;;;;;;;1.13;1.08;;;;;;;;;;4992096;28;20704;-71
2022/02/04 16:59:22;;;;;;;3.67;1.60;;;;;;;;;;4989566;28;20394;-71
2022/02/04 17:01:47;;;;;;;2.43;1.53;;;;;;;;;;4994626;28;20358;-71
2022/02/04 17:04:13;;;;;;;1.48;1.30;;;;;;;;;;4995744;28;20094;-71
2022/02/04 17:06:42;;;;;;;2.90;1.48;;;;;;;;;;4991005;28;20102;-70
2022/02/04 17:11:44;;;;;;;1.15;1.10;;;;;;;;;;5000778;28;20300;-68
2022/02/04 17:14:09;;;;;;;2.88;1.30;;;;;;;;;;5003129;28;20155;-68
2022/02/04 17:16:35;;;;;;;2.13;1.50;;;;;;;;;;5002093;28;20148;-70
2022/02/04 17:19:00;;;;;;;2.40;1.30;;;;;;;;;;5002320;28;20097;-70
2022/02/04 17:21:29;;;;;;;1.47;1.10;;;;;;;;;;5002077;28;20353;-69
2022/02/04 17:23:55;;;;;;;0.98;0.93;;;;;;;;;;5002097;28;20193;-69
2022/02/04 17:26:22;;;;;;;2.47;0.93;;;;;;;;;;4993934;28;20572;-70
2022/02/04 17:28:47;;;;;;;1.08;0.95;;;;;;;;;;4998327;28;20098;-70
2022/02/04 17:31:12;;;;;;;1.40;1.02;;;;;;;;;;5002305;28;20091;-70
2022/02/04 17:33:38;;;;;;;1.40;1.10;;;;;;;;;;4988908;28;20154;-70
2022/02/04 17:36:03;;;;;;;1.52;1.38;;;;;;;;;;5001942;28;20140;-69
2022/02/04 17:38:29;;;;;;;1.38;1.27;;;;;;;;;;5002376;28;20074;-68
2022/02/04 17:40:57;;;;;;;1.02;0.93;;;;;;;;;;4994477;28;20090;-70
2022/02/04 17:43:22;;;;;;;1.23;1.13;;;;;;;;;;4995386;28;20193;-70
2022/02/04 17:45:47;;;;;;;2.28;1.40;;;;;;;;;;4995644;28;20177;-70
2022/02/04 17:48:32;;;;;;;1.50;1.40;;;;;;;;;;4994002;28;20114;-70
2022/02/04 17:51:49;;;;;;;1.85;1.30;;;;;;;;;;4991914;28;20090;-70
2022/02/04 17:53:51;;;;;;;2.13;1.67;;;;;;;;;;4980609;28;20090;-70
2022/02/04 17:57:04;;;;;;;2.53;1.67;;;;;;;;;;4995079;28;20132;-70
2022/02/04 18:09:20;;;;;;;2.45;1.55;;;;;;;;;;4997493;28;20137;-69
2022/02/04 18:11:45;;;;;;;1.33;1.23;;;;;;;;;;5001312;28;20106;-70
2022/02/04 18:14:11;;;;;;;1.37;1.27;;;;;;;;;;4988598;28;20275;-70
2022/02/04 18:16:36;;;;;;;1.88;1.35;;;;;;;;;;4994741;28;20177;-70
2022/02/04 18:19:01;;;;;;;1.70;1.42;;;;;;;;;;4994971;28;20090;-70
2022/02/04 18:21:27;;;;;;;2.57;1.70;;;;;;;;;;4988871;28;20087;-71
2022/02/04 18:23:52;;;;;;;1.63;1.53;;;;;;;;;;4988675;28;20160;-71
2022/02/04 18:26:17;;;;;;;2.00;1.80;;;;;;;;;;5000788;28;20078;-71
2022/02/04 18:28:42;;;;;;;2.57;1.60;;;;;;;;;;4988980;28;20750;-70
2022/02/04 18:31:08;;;;;;;2.00;1.80;;;;;;;;;;4994940;28;20202;-70
2022/02/04 18:33:33;;;;;;;2.00;1.58;;;;;;;;;;4993360;28;20077;-71
2022/02/04 18:36:01;;;;;;;1.97;1.87;;;;;;;;;;4995625;28;20161;-71
2022/02/04 18:38:45;;;;;;;2.20;2.00;;;;;;;;;;4992234;28;20506;-71
2022/02/04 18:41:31;;;;;;;3.35;2.10;;;;;;;;;;4994972;28;20078;-71
2022/02/04 18:44:00;;;;;;;2.50;2.30;;;;;;;;;;4994159;28;20117;-71
2022/02/04 18:49:35;;;;;;;2.47;2.28;;;;;;;;;;4988626;28;20412;-71
2022/02/04 18:52:18;;;;;;;1.80;1.70;;;;;;;;;;4991233;28;20090;-70
2022/02/04 18:57:28;;;;;;;1.88;1.73;;;;;;;;;;4988908;28;20264;-71
2022/02/04 18:59:59;;;;;;;2.20;2.00;;;;;;;;;;4992828;28;20931;-69
2022/02/04 19:02:25;;;;;;;2.25;2.05;;;;;;;;;;4994657;28;20078;-70
2022/02/04 19:05:18;;;;;;;2.15;2.00;;;;;;;;;;4991302;28;20261;-70
2022/02/04 19:10:02;;;;;;;2.20;2.10;;;;;;;;;;5001439;28;20717;-70
2022/02/04 19:12:34;;;;;;;2.72;2.50;;;;;;;;;;4999670;28;20112;-70
2022/02/04 19:15:23;;;;;;;2.33;2.13;;;;;;;;;;4995207;28;20105;-69
2022/02/04 19:17:53;;;;;;;2.45;2.22;;;;;;;;;;4993362;28;20082;-70
2022/02/04 19:21:00;;;;;;;5.07;2.22;;;;;;;;;;4994379;28;20126;-70
2022/02/04 19:23:18;;;;;;;2.50;2.30;;;;;;;;;;4992479;28;20102;-69
2022/02/04 19:25:44;;;;;;;2.58;2.38;;;;;;;;;;4981637;28;20071;-70
2022/02/04 19:28:09;;;;;;;4.03;2.67;;;;;;;;;;4994467;28;20112;-69
2022/02/04 19:30:41;;;;;;;2.40;2.20;;;;;;;;;;5004252;28;20077;-69
2022/02/04 19:33:06;;;;;;;3.72;2.25;;;;;;;;;;4990376;28;20475;-69
2022/02/04 19:35:31;;;;;;;2.13;1.90;;;;;;;;;;4996559;28;20106;-69
2022/02/04 19:37:58;;;;;;;2.33;1.40;;;;;;;;;;5000887;28;20085;-70
2022/02/04 19:40:23;;;;;;;3.38;1.83;;;;;;;;;;5001217;28;20323;-69
2022/02/04 19:42:49;;;;;;;1.50;1.40;;;;;;;;;;4993404;28;20625;-70
2022/02/04 19:45:21;;;;;;;1.33;1.20;;;;;;;;;;4991428;28;20079;-70
2022/02/04 19:47:55;;;;;;;2.97;1.35;;;;;;;;;;4994082;28;20271;-70
2022/02/04 20:17:31;;;;;;;4.82;2.00;;;;;;;;;;4997142;28;20106;-68
2022/02/04 20:25:16;;;;;;;1.40;1.27;;;;;;;;;;5003460;28;20124;-69
2022/02/04 20:27:42;;;;;;;2.70;0.97;;;;;;;;;;4994122;28;20107;-68
2022/02/04 20:30:08;;;;;;;2.90;1.73;;;;;;;;;;4997269;28;20371;-69
2022/02/04 20:32:33;;;;;;;1.60;1.23;;;;;;;;;;4991584;28;20305;-69
2022/02/04 20:34:59;;;;;;;4.63;2.30;;;;;;;;;;4990157;28;20164;-70
2022/02/04 20:37:24;;;;;;;3.40;1.63;;;;;;;;;;4994848;28;20674;-70
2022/02/04 20:39:54;;;;;;;3.63;1.93;;;;;;;;;;5002234;28;20106;-68
2022/02/04 20:42:20;;;;;;;3.33;1.60;;;;;;;;;;4989720;28;20367;-69
2022/02/04 20:44:47;;;;;;;6.55;2.50;;;;;;;;;;4996475;28;20178;-70
2022/02/04 20:47:12;;;;;;;6.63;2.15;;;;;;;;;;4996638;28;20094;-69
2022/02/04 20:49:38;;;;;;;3.45;2.17;;;;;;;;;;4996745;28;20605;-70